< Cyclone 197808 1978 Season Cyclone 197901 >
Cyclone 197809 (HAL)
General InformationTrack Information on Google Maps || ResourceGoogle EarthGE AnimationAtom FeedGeoJSON
Detalied Best Track (Time Zone = UTC)
Year Month Day Hour Lat. Long. Pressure (hPa) Wind (kt) Class Image Chart
1978 4 6 06 -12.1 138.2 996 0 0 -- --
1978 4 6 12 -12.1 139.0 992 0 0 -- --
1978 4 6 14 -12.2 139.5 988 0 0 -- --
1978 4 6 17 -12.4 140.0 985 0 0 -- --
1978 4 6 23 -13.0 140.7 985 0 0 -- --
1978 4 7 05 -13.8 141.4 992 0 0 -- --
1978 4 7 11 -14.5 142.3 998 0 0 -- --
1978 4 7 17 -15.0 144.0 1000 0 0 -- --
1978 4 7 23 -15.5 146.2 998 0 0 -- --
1978 4 8 05 -16.0 147.3 998 0 0 -- --
1978 4 8 11 -16.6 147.9 1000 0 0 -- --
1978 4 8 14 -17.0 148.1 999 0 0 -- --
1978 4 8 17 -17.2 148.5 998 0 0 -- --
1978 4 8 20 -17.1 148.3 999 0 0 -- --
1978 4 8 23 -17.3 148.3 999 0 0 -- --
1978 4 9 05 -17.4 149.4 994 0 0 -- --
1978 4 9 11 -17.4 150.5 998 0 0 -- --
1978 4 9 17 -17.4 151.3 997 0 0 -- --
1978 4 9 23 -17.4 151.9 1000 0 0 -- --
1978 4 10 05 -17.4 152.5 999 0 0 -- --
1978 4 10 11 -17.6 153.1 1001 0 0 -- --
1978 4 10 17 -17.8 153.7 999 0 0 -- --
1978 4 10 23 -18.1 154.0 998 0 0 -- --
1978 4 11 05 -18.7 154.0 998 0 0 -- --
1978 4 11 11 -19.5 153.8 1000 0 0 -- --
1978 4 11 17 -20.3 153.8 999 0 0 -- --
1978 4 11 23 -20.9 154.0 1001 0 0 -- --
< Cyclone 197808 1978 Season Cyclone 197901 >

Help